Time;durP1;ratioP1;P1;durP2;ratioP2;P2;SDS_P1;SDS_P2;PMS_P1;PMS_P2;Temp;Humidity;BMP_temperature;BMP_pressure;BME280_temperature;BME280_humidity;BME280_pressure;Samples;Min_cycle;Max_cycle;Signal;HPM_P1;HPM_P2
2023/09/19 00:02:04;;;;;;;13.65;3.88;;;18.10;99.90;;;;;;5023917;28;19991;-73
2023/09/19 00:04:34;;;;;;;8.32;3.42;;;18.20;99.90;;;;;;5019149;28;20058;-73
2023/09/19 00:07:02;;;;;;;13.57;3.55;;;18.20;99.90;;;;;;5021508;28;20038;-75
2023/09/19 00:09:28;;;;;;;9.20;3.47;;;18.20;99.90;;;;;;5020106;28;20081;-74
2023/09/19 00:11:54;;;;;;;9.10;3.40;;;18.20;99.90;;;;;;5018445;28;20446;-73
2023/09/19 00:14:20;;;;;;;13.68;3.10;;;18.30;99.90;;;;;;5022043;28;20018;-73
2023/09/19 00:16:49;;;;;;;19.83;4.03;;;18.30;99.90;;;;;;5014380;28;20490;-73
2023/09/19 00:19:16;;;;;;;13.75;3.47;;;18.20;99.90;;;;;;5016195;28;20048;-72
2023/09/19 00:21:41;;;;;;;10.38;3.33;;;18.10;99.90;;;;;;5024236;28;20029;-74
2023/09/19 00:24:08;;;;;;;12.70;3.28;;;18.10;99.90;;;;;;5016793;28;20034;-74
2023/09/19 00:26:34;;;;;;;15.57;3.55;;;18.00;99.90;;;;;;5017279;28;20056;-73
2023/09/19 00:29:08;;;;;;;14.43;3.50;;;18.10;99.90;;;;;;5022066;28;20057;-73
2023/09/19 00:31:34;;;;;;;10.95;3.05;;;18.20;99.90;;;;;;5018739;28;20056;-73
2023/09/19 00:34:06;;;;;;;11.00;3.33;;;18.10;99.90;;;;;;5023940;28;20493;-73
2023/09/19 00:36:33;;;;;;;9.85;3.15;;;18.00;99.90;;;;;;5019674;28;20079;-73
2023/09/19 00:38:59;;;;;;;12.73;3.33;;;18.00;99.90;;;;;;5015714;28;20045;-73
2023/09/19 00:41:25;;;;;;;8.90;3.33;;;18.00;99.90;;;;;;5014571;28;20402;-73
2023/09/19 00:43:50;;;;;;;8.40;4.77;;;18.00;99.90;;;;;;5013551;28;20117;-73
2023/09/19 00:46:19;;;;;;;12.57;4.03;;;18.00;99.90;;;;;;5018630;28;20708;-73
2023/09/19 00:48:46;;;;;;;11.80;4.45;;;17.90;99.90;;;;;;5013277;28;20560;-73
2023/09/19 00:51:13;;;;;;;9.50;3.90;;;18.00;99.90;;;;;;5014707;28;20061;-73
2023/09/19 00:53:42;;;;;;;18.35;4.18;;;18.00;99.90;;;;;;5020730;28;20049;-73
2023/09/19 00:56:07;;;;;;;14.05;4.80;;;18.00;99.90;;;;;;5015046;28;20034;-73
2023/09/19 00:58:35;;;;;;;12.75;4.80;;;18.10;99.90;;;;;;5018679;28;20036;-73
2023/09/19 01:01:02;;;;;;;12.68;4.78;;;18.10;99.90;;;;;;5020050;28;20037;-73
2023/09/19 01:03:28;;;;;;;10.30;3.72;;;18.10;99.90;;;;;;5023582;28;20278;-72
2023/09/19 01:05:54;;;;;;;16.92;4.63;;;18.10;99.90;;;;;;5018552;28;20049;-73
2023/09/19 01:08:20;;;;;;;16.35;4.97;;;18.00;99.90;;;;;;5021032;28;20030;-74
2023/09/19 01:11:02;;;;;;;13.77;4.07;;;17.90;99.90;;;;;;5016629;28;21046;-73
2023/09/19 01:13:57;;;;;;;15.30;3.95;;;17.90;99.90;;;;;;5020762;28;20057;-73
2023/09/19 01:16:35;;;;;;;14.77;4.60;;;17.80;99.90;;;;;;5017075;28;20421;-71
2023/09/19 01:19:25;;;;;;;11.18;4.10;;;17.70;99.90;;;;;;5014710;28;20113;-73
2023/09/19 01:22:17;;;;;;;8.70;4.72;;;17.80;99.90;;;;;;5012186;28;20096;-73
2023/09/19 01:24:55;;;;;;;12.13;4.75;;;17.90;99.90;;;;;;5017291;28;20025;-72
2023/09/19 01:27:52;;;;;;;18.63;5.20;;;17.90;99.90;;;;;;5023618;28;20097;-73
2023/09/19 01:30:24;;;;;;;16.93;5.37;;;17.90;99.90;;;;;;5017335;28;20037;-72
2023/09/19 01:32:52;;;;;;;9.13;4.15;;;17.90;99.90;;;;;;5015729;28;20722;-71
2023/09/19 01:35:18;;;;;;;11.73;4.20;;;17.90;99.90;;;;;;5021374;28;20029;-72
2023/09/19 01:37:44;;;;;;;10.20;4.00;;;17.80;99.90;;;;;;5021580;28;20112;-72
2023/09/19 01:40:16;;;;;;;26.92;4.40;;;17.80;99.90;;;;;;5018844;28;20025;-73
2023/09/19 01:42:48;;;;;;;12.15;4.05;;;17.80;99.90;;;;;;5014794;28;20036;-73
2023/09/19 01:45:33;;;;;;;13.77;4.30;;;17.80;99.90;;;;;;5010189;28;20657;-72
2023/09/19 01:48:14;;;;;;;16.33;4.00;;;17.90;99.90;;;;;;5021550;28;20034;-73
2023/09/19 01:50:58;;;;;;;10.60;3.92;;;18.00;99.90;;;;;;5024942;28;20045;-73
2023/09/19 01:53:30;;;;;;;10.10;4.55;;;18.00;99.90;;;;;;5011014;28;20041;-74
2023/09/19 01:55:57;;;;;;;9.43;4.22;;;18.00;99.90;;;;;;5022615;28;20057;-73
2023/09/19 01:58:48;;;;;;;10.13;4.65;;;18.00;99.90;;;;;;5020034;28;20206;-72
2023/09/19 02:01:20;;;;;;;8.27;4.13;;;17.90;99.90;;;;;;5035364;28;20037;-73
2023/09/19 02:03:47;;;;;;;10.68;4.55;;;17.90;99.90;;;;;;5019760;28;20022;-73
2023/09/19 02:06:18;;;;;;;11.68;4.53;;;17.80;99.90;;;;;;5018394;28;20096;-72
2023/09/19 02:08:45;;;;;;;13.52;4.80;;;17.80;99.90;;;;;;5018297;28;20033;-75
2023/09/19 02:11:11;;;;;;;18.42;7.35;;;17.90;99.90;;;;;;5018564;28;20073;-73
2023/09/19 02:13:37;;;;;;;;;;;18.00;99.90;;;;;;5014089;28;20041;-74
2023/09/19 02:16:04;;;;;;;13.93;5.75;;;18.00;99.90;;;;;;5014679;28;19959;-74
2023/09/19 02:18:30;;;;;;;15.40;5.25;;;17.90;99.90;;;;;;5014622;28;20524;-73
2023/09/19 02:20:58;;;;;;;18.50;6.53;;;18.00;99.90;;;;;;5013131;28;20034;-74
2023/09/19 02:23:24;;;;;;;14.75;5.47;;;18.00;99.90;;;;;;5018959;28;20034;-74
2023/09/19 02:26:05;;;;;;;23.98;6.75;;;18.10;99.90;;;;;;5018430;28;20030;-74
2023/09/19 02:28:31;;;;;;;17.90;5.72;;;18.00;99.90;;;;;;5020303;28;20048;-74
2023/09/19 02:31:01;;;;;;;17.10;4.80;;;18.00;99.90;;;;;;5018991;28;20045;-73
2023/09/19 02:33:26;;;;;;;10.10;4.38;;;18.00;99.90;;;;;;5013846;28;20408;-73
2023/09/19 02:35:57;;;;;;;15.03;4.10;;;18.00;99.90;;;;;;5017431;28;20026;-73
2023/09/19 02:38:24;;;;;;;9.32;4.03;;;17.90;99.90;;;;;;5019095;28;20034;-73
2023/09/19 02:40:51;;;;;;;10.98;4.35;;;18.00;99.90;;;;;;5018344;28;20034;-74
2023/09/19 02:43:17;;;;;;;8.93;4.47;;;18.00;99.90;;;;;;5022199;28;20036;-72
2023/09/19 02:45:42;;;;;;;9.63;4.55;;;18.00;99.90;;;;;;5018818;28;20041;-73
2023/09/19 02:48:08;;;;;;;12.90;4.18;;;18.00;99.90;;;;;;5022801;28;20030;-72
2023/09/19 02:50:34;;;;;;;8.57;5.63;;;18.00;99.90;;;;;;5018821;28;20041;-73
2023/09/19 02:53:00;;;;;;;18.08;8.13;;;18.10;99.90;;;;;;5024017;28;20132;-73
2023/09/19 02:55:26;;;;;;;22.05;9.00;;;18.10;99.90;;;;;;5017365;28;20390;-73
2023/09/19 02:57:56;;;;;;;15.68;5.47;;;18.10;99.90;;;;;;5019682;28;20494;-72
2023/09/19 03:00:23;;;;;;;15.80;5.07;;;18.10;99.90;;;;;;5022854;28;20079;-72
2023/09/19 03:02:53;;;;;;;;;;;18.10;99.90;;;;;;5021892;28;20069;-72
2023/09/19 03:05:20;;;;;;;15.82;4.40;;;18.10;99.90;;;;;;5020298;28;20040;-72
2023/09/19 03:07:50;;;;;;;12.80;4.60;;;18.10;99.90;;;;;;5019385;28;20794;-72
2023/09/19 03:10:16;;;;;;;14.35;4.22;;;18.10;99.90;;;;;;5015184;28;20049;-72
2023/09/19 03:12:42;;;;;;;9.82;3.38;;;18.10;99.90;;;;;;5020179;28;20517;-73
2023/09/19 03:15:11;;;;;;;11.70;4.40;;;18.00;99.90;;;;;;5020584;28;20042;-72
2023/09/19 03:17:37;;;;;;;11.40;3.75;;;18.00;99.90;;;;;;5015033;28;20024;-72
2023/09/19 03:20:04;;;;;;;12.75;4.13;;;18.00;99.90;;;;;;5014257;28;20029;-72
2023/09/19 03:22:30;;;;;;;9.25;4.30;;;18.00;99.90;;;;;;5019592;28;20028;-72
2023/09/19 03:24:56;;;;;;;15.90;5.27;;;18.00;99.90;;;;;;5019117;28;20037;-72
2023/09/19 03:27:22;;;;;;;18.90;4.75;;;18.00;99.90;;;;;;5021330;28;20284;-72
2023/09/19 03:29:47;;;;;;;14.00;4.15;;;18.10;99.90;;;;;;5017024;28;20041;-72
2023/09/19 03:32:13;;;;;;;17.30;4.63;;;18.10;99.90;;;;;;5013891;28;20037;-72
2023/09/19 03:34:43;;;;;;;14.70;4.97;;;18.10;99.90;;;;;;5023683;28;20037;-72
2023/09/19 03:37:09;;;;;;;7.82;3.90;;;18.10;99.90;;;;;;5035207;28;20022;-72
2023/09/19 03:39:35;;;;;;;10.68;2.38;;;18.10;99.90;;;;;;5020574;28;20894;-72
2023/09/19 03:42:03;;;;;;;6.10;1.70;;;18.00;99.90;;;;;;5019528;28;20034;-73
2023/09/19 03:44:30;;;;;;;7.70;1.80;;;17.90;99.90;;;;;;5015733;28;20037;-72
2023/09/19 03:46:56;;;;;;;4.72;1.67;;;18.00;99.90;;;;;;5016989;28;20172;-72
2023/09/19 03:49:22;;;;;;;2.95;1.30;;;17.90;99.90;;;;;;5022368;28;20034;-72
2023/09/19 03:51:48;;;;;;;3.30;1.10;;;17.90;99.90;;;;;;5017997;28;20038;-72
2023/09/19 03:54:13;;;;;;;4.30;1.30;;;17.90;99.90;;;;;;5016454;28;20046;-72
2023/09/19 03:56:39;;;;;;;10.40;1.50;;;17.90;99.90;;;;;;5015852;28;20478;-72
2023/09/19 03:59:05;;;;;;;2.33;1.20;;;17.80;99.90;;;;;;5018057;28;20037;-73
2023/09/19 04:01:32;;;;;;;3.72;1.10;;;17.90;99.90;;;;;;5016319;28;20033;-73
2023/09/19 04:03:58;;;;;;;3.95;1.40;;;17.80;99.90;;;;;;5014249;28;20045;-73
2023/09/19 04:06:24;;;;;;;7.00;1.40;;;17.70;99.90;;;;;;5018855;28;20426;-72
2023/09/19 04:08:49;;;;;;;4.57;1.30;;;17.70;99.90;;;;;;5017017;28;20413;-73
2023/09/19 04:11:15;;;;;;;9.60;1.67;;;17.60;99.90;;;;;;5020714;28;20030;-73
2023/09/19 04:13:41;;;;;;;4.13;1.33;;;17.70;99.90;;;;;;5014030;28;20041;-73
2023/09/19 04:16:10;;;;;;;2.50;1.33;;;17.70;99.90;;;;;;5023864;28;20025;-73
2023/09/19 04:18:38;;;;;;;3.88;1.27;;;17.70;99.90;;;;;;5011268;28;20038;-73
2023/09/19 04:21:04;;;;;;;6.03;1.67;;;17.70;99.90;;;;;;5017029;28;20113;-72
2023/09/19 04:23:30;;;;;;;6.40;1.63;;;17.70;99.90;;;;;;5021165;28;20022;-73
2023/09/19 04:25:56;;;;;;;3.72;1.17;;;17.60;99.90;;;;;;5016142;28;20046;-73
2023/09/19 04:28:23;;;;;;;11.57;1.80;;;17.70;99.90;;;;;;5022314;28;20410;-73
2023/09/19 04:30:48;;;;;;;7.10;1.40;;;17.70;99.90;;;;;;5016352;28;20455;-73
2023/09/19 04:33:14;;;;;;;8.13;1.37;;;17.60;99.90;;;;;;5015750;28;20055;-72
2023/09/19 04:35:42;;;;;;;5.78;1.30;;;17.60;99.90;;;;;;5021644;28;20029;-72
2023/09/19 04:38:08;;;;;;;4.93;1.20;;;17.60;99.90;;;;;;5023939;28;20239;-72
2023/09/19 04:40:34;;;;;;;10.77;1.30;;;17.50;99.90;;;;;;5018171;28;20620;-74
2023/09/19 04:43:00;;;;;;;8.82;1.70;;;17.50;99.90;;;;;;5016664;28;20128;-73
2023/09/19 04:45:27;;;;;;;4.50;1.23;;;17.50;99.90;;;;;;5014162;28;20033;-73
2023/09/19 04:47:53;;;;;;;9.93;1.30;;;17.60;99.90;;;;;;5014263;28;20045;-73
2023/09/19 04:50:20;;;;;;;3.88;1.30;;;17.50;99.90;;;;;;5016284;28;20514;-72
2023/09/19 04:52:50;;;;;;;2.40;1.42;;;17.40;99.90;;;;;;5011560;28;20045;-72
2023/09/19 04:55:17;;;;;;;4.80;1.60;;;17.40;99.90;;;;;;5020953;28;20037;-72
2023/09/19 04:57:47;;;;;;;6.03;1.95;;;17.30;99.90;;;;;;5016080;28;20041;-72
2023/09/19 05:00:15;;;;;;;5.75;1.70;;;17.40;99.90;;;;;;5013861;28;20525;-73
2023/09/19 05:02:42;;;;;;;5.45;1.85;;;17.40;99.90;;;;;;5014168;28;20036;-73
2023/09/19 05:05:10;;;;;;;3.95;1.77;;;17.50;99.90;;;;;;5012759;28;20034;-73
2023/09/19 05:07:36;;;;;;;6.38;2.20;;;17.50;99.90;;;;;;5027470;28;20056;-73
2023/09/19 05:10:05;;;;;;;4.25;1.65;;;17.50;99.90;;;;;;5012510;28;20053;-72
2023/09/19 05:12:32;;;;;;;5.00;1.73;;;17.60;99.90;;;;;;5019196;28;20045;-72
2023/09/19 05:14:58;;;;;;;5.90;2.05;;;17.60;99.90;;;;;;5017239;28;20517;-71
2023/09/19 05:17:24;;;;;;;4.00;2.20;;;17.60;99.90;;;;;;5013070;28;20035;-73
2023/09/19 05:19:50;;;;;;;3.75;1.80;;;17.60;99.90;;;;;;5018617;28;20030;-73
2023/09/19 05:22:15;;;;;;;4.03;1.80;;;17.50;99.90;;;;;;5014789;28;20803;-73
2023/09/19 05:24:41;;;;;;;6.63;1.80;;;17.50;99.90;;;;;;5017945;28;20509;-73
2023/09/19 05:27:07;;;;;;;9.83;1.93;;;17.50;99.90;;;;;;5018014;28;20029;-73
2023/09/19 05:29:33;;;;;;;9.83;2.07;;;17.40;99.90;;;;;;5014959;28;20363;-73
2023/09/19 05:31:59;;;;;;;10.10;1.90;;;17.40;99.90;;;;;;5018686;28;20042;-73
2023/09/19 05:34:28;;;;;;;3.88;1.58;;;17.40;99.90;;;;;;5016385;28;20064;-72
2023/09/19 05:36:54;;;;;;;8.57;2.25;;;17.40;99.90;;;;;;5011302;28;20045;-73
2023/09/19 05:39:20;;;;;;;7.45;1.75;;;17.40;99.90;;;;;;5017920;28;20490;-73
2023/09/19 05:41:47;;;;;;;5.22;2.33;;;17.30;99.90;;;;;;5023011;28;20033;-73
2023/09/19 05:44:14;;;;;;;2.72;1.67;;;17.40;99.90;;;;;;5012089;28;20034;-73
2023/09/19 05:46:39;;;;;;;5.18;1.55;;;17.40;99.90;;;;;;5020240;28;20029;-72
2023/09/19 05:49:05;;;;;;;16.07;2.70;;;17.40;99.90;;;;;;5014060;28;20037;-73
2023/09/19 05:51:31;;;;;;;7.73;1.80;;;17.40;99.90;;;;;;5020044;28;20326;-70
2023/09/19 05:53:57;;;;;;;5.77;1.90;;;17.40;99.90;;;;;;5019273;28;20636;-70
2023/09/19 05:56:23;;;;;;;6.10;1.60;;;17.40;99.90;;;;;;5009295;28;20329;-71
2023/09/19 05:58:51;;;;;;;4.75;1.70;;;17.40;99.90;;;;;;5010396;28;20049;-71
2023/09/19 06:01:17;;;;;;;5.40;1.50;;;17.40;99.90;;;;;;5013770;28;20039;-70
2023/09/19 06:03:43;;;;;;;4.53;1.83;;;17.40;99.90;;;;;;5013488;28;20029;-70
2023/09/19 06:06:09;;;;;;;3.50;1.53;;;17.40;99.90;;;;;;5016025;28;20030;-70
2023/09/19 06:08:35;;;;;;;3.23;1.77;;;17.40;99.90;;;;;;5012739;28;20283;-71
2023/09/19 06:11:01;;;;;;;9.18;2.30;;;17.40;99.90;;;;;;5017042;28;20049;-70
2023/09/19 06:13:29;;;;;;;8.97;2.70;;;17.40;99.90;;;;;;5011201;28;20527;-70
2023/09/19 06:15:59;;;;;;;6.95;2.20;;;17.40;99.90;;;;;;5013298;28;20402;-70
2023/09/19 06:18:26;;;;;;;5.07;2.22;;;17.40;99.90;;;;;;5021990;28;20036;-70
2023/09/19 06:20:51;;;;;;;;;;;17.50;99.90;;;;;;5015517;28;20037;-70
2023/09/19 06:23:17;;;;;;;4.15;1.98;;;17.50;99.90;;;;;;5024930;28;19913;-70
2023/09/19 06:25:43;;;;;;;8.07;2.90;;;17.50;99.90;;;;;;5017799;28;20029;-71
2023/09/19 06:28:12;;;;;;;7.95;2.22;;;17.50;99.90;;;;;;5020319;28;20506;-69
2023/09/19 06:30:41;;;;;;;7.13;2.38;;;17.40;99.90;;;;;;5022227;28;20501;-72
2023/09/19 06:33:07;;;;;;;10.00;2.30;;;17.50;99.90;;;;;;5021397;28;20048;-72
2023/09/19 06:35:35;;;;;;;6.13;2.37;;;17.50;99.90;;;;;;5014159;28;20026;-68
2023/09/19 06:38:04;;;;;;;5.47;2.47;;;17.60;99.90;;;;;;5015194;28;20316;-69
2023/09/19 06:40:30;;;;;;;7.78;2.20;;;17.60;99.90;;;;;;5017228;28;20449;-68
2023/09/19 06:42:56;;;;;;;6.32;2.40;;;17.70;99.90;;;;;;5018184;28;20041;-69
2023/09/19 06:45:22;;;;;;;7.68;2.15;;;17.70;99.90;;;;;;5018470;28;20030;-69
2023/09/19 06:47:52;;;;;;;6.32;2.35;;;17.70;99.90;;;;;;5021662;28;20026;-69
2023/09/19 06:50:20;;;;;;;3.88;1.92;;;17.70;99.90;;;;;;5018777;28;20746;-69
2023/09/19 06:52:50;;;;;;;5.70;2.33;;;17.80;99.90;;;;;;5015321;28;20480;-69
2023/09/19 06:55:19;;;;;;;14.50;2.45;;;17.80;99.90;;;;;;5017350;28;20042;-69
2023/09/19 06:57:48;;;;;;;4.75;2.00;;;18.00;99.90;;;;;;5017024;28;20053;-69
2023/09/19 07:00:24;;;;;;;5.88;2.42;;;18.00;99.90;;;;;;5022001;28;20049;-69
2023/09/19 07:03:04;;;;;;;11.77;2.60;;;18.00;99.90;;;;;;5019795;28;20025;-69
2023/09/19 07:05:31;;;;;;;4.57;2.05;;;18.10;99.90;;;;;;5020659;28;20195;-69
2023/09/19 07:07:58;;;;;;;9.15;3.00;;;18.20;99.90;;;;;;5019343;28;20026;-70
2023/09/19 07:10:27;;;;;;;4.70;2.00;;;18.40;99.90;;;;;;5021557;28;20033;-70
2023/09/19 07:13:02;;;;;;;4.57;1.77;;;19.30;99.90;;;;;;5012727;28;20077;-69
2023/09/19 07:15:30;;;;;;;5.90;2.30;;;19.30;99.90;;;;;;5017032;28;20043;-69
2023/09/19 07:17:56;;;;;;;4.35;1.90;;;18.70;99.90;;;;;;5018364;28;20038;-69
2023/09/19 07:20:26;;;;;;;3.75;1.38;;;18.40;99.90;;;;;;5015936;28;20417;-69
2023/09/19 07:22:52;;;;;;;3.28;1.40;;;18.50;99.90;;;;;;5018472;28;20045;-69
2023/09/19 07:25:17;;;;;;;11.63;1.77;;;18.50;99.90;;;;;;5018240;28;20026;-69
2023/09/19 07:27:44;;;;;;;5.28;1.80;;;18.90;99.90;;;;;;5015164;28;20118;-69
2023/09/19 07:30:11;;;;;;;4.82;1.27;;;19.10;99.90;;;;;;5014632;28;20398;-69
2023/09/19 07:32:38;;;;;;;4.95;1.70;;;19.20;99.90;;;;;;5021436;28;20036;-69
2023/09/19 07:35:05;;;;;;;;;;;19.30;99.90;;;;;;5022443;28;20029;-69
2023/09/19 07:37:33;;;;;;;5.00;1.65;;;19.20;99.90;;;;;;5018167;28;19913;-68
2023/09/19 07:40:00;;;;;;;7.07;1.40;;;19.30;99.90;;;;;;5012910;28;20413;-69
2023/09/19 07:42:27;;;;;;;4.05;1.40;;;19.30;99.90;;;;;;5018738;28;20026;-70
2023/09/19 07:44:53;;;;;;;3.80;1.30;;;19.40;99.90;;;;;;5016867;28;20040;-71
2023/09/19 07:47:21;;;;;;;2.20;1.05;;;19.60;99.90;;;;;;5018483;28;20104;-72
2023/09/19 07:49:49;;;;;;;7.45;1.88;;;19.70;99.90;;;;;;5019388;28;20731;-72
2023/09/19 07:52:15;;;;;;;12.93;1.98;;;20.00;99.90;;;;;;5014483;28;20052;-74
2023/09/19 07:54:43;;;;;;;2.75;1.13;;;20.10;99.90;;;;;;5017278;28;20122;-77
2023/09/19 07:57:10;;;;;;;6.63;1.58;;;20.30;99.90;;;;;;5020349;28;20168;-75
2023/09/19 07:59:38;;;;;;;2.80;1.30;;;20.50;99.90;;;;;;5023012;28;20033;-72
2023/09/19 08:02:04;;;;;;;6.50;1.50;;;20.50;99.90;;;;;;5021163;28;20476;-77
2023/09/19 08:04:33;;;;;;;;;;;20.70;99.90;;;;;;5018383;28;20037;-70
2023/09/19 08:07:00;;;;;;;4.43;1.50;;;20.90;99.90;;;;;;5013709;28;19913;-75
2023/09/19 08:09:27;;;;;;;3.17;1.30;;;21.10;99.90;;;;;;5033691;28;20037;-73
2023/09/19 08:11:53;;;;;;;2.33;1.30;;;21.30;99.90;;;;;;5019296;28;20083;-74
2023/09/19 08:14:19;;;;;;;5.68;1.20;;;21.30;99.90;;;;;;5019679;28;20041;-72
2023/09/19 08:16:44;;;;;;;2.53;1.37;;;21.10;99.90;;;;;;5017739;28;20025;-73
2023/09/19 08:19:10;;;;;;;2.50;1.30;;;21.30;99.90;;;;;;5018105;28;21143;-73
2023/09/19 08:21:37;;;;;;;1.63;1.27;;;21.60;99.90;;;;;;5014502;28;20052;-70
2023/09/19 08:24:05;;;;;;;2.40;1.35;;;22.60;99.90;;;;;;5016758;28;20509;-72
2023/09/19 08:26:32;;;;;;;4.15;1.30;;;22.50;99.90;;;;;;5016441;28;20087;-71
2023/09/19 08:28:57;;;;;;;3.33;1.33;;;23.20;99.90;;;;;;5018593;28;20034;-73
2023/09/19 08:31:23;;;;;;;5.13;1.70;;;22.80;99.90;;;;;;5016064;28;20041;-74
2023/09/19 08:33:51;;;;;;;4.32;1.40;;;24.10;99.90;;;;;;5017551;28;20301;-72
2023/09/19 08:36:16;;;;;;;3.33;1.65;;;25.10;99.00;;;;;;5016875;28;20037;-70
2023/09/19 08:38:42;;;;;;;5.88;1.67;;;26.20;96.40;;;;;;5018420;28;20064;-69
2023/09/19 08:41:08;;;;;;;5.85;1.40;;;25.80;94.50;;;;;;5017236;28;20422;-69
2023/09/19 08:43:34;;;;;;;3.47;1.40;;;24.90;96.10;;;;;;5017657;28;20605;-72
2023/09/19 08:46:11;;;;;;;3.83;1.50;;;25.50;95.60;;;;;;5017926;28;20064;-70
2023/09/19 08:48:44;;;;;;;4.22;1.55;;;26.70;93.00;;;;;;5015742;28;20022;-70
2023/09/19 08:51:37;;;;;;;4.32;1.60;;;27.30;93.20;;;;;;5016980;28;20044;-72
2023/09/19 08:54:13;;;;;;;2.97;1.58;;;27.50;90.60;;;;;;5020461;28;20054;-74
2023/09/19 08:56:40;;;;;;;3.38;1.23;;;27.50;87.40;;;;;;5014168;28;20037;-74
2023/09/19 08:59:11;;;;;;;4.53;1.60;;;27.60;85.70;;;;;;5016922;28;20478;-74
2023/09/19 09:01:38;;;;;;;4.78;1.60;;;27.40;90.40;;;;;;5019201;28;20049;-76
2023/09/19 09:04:08;;;;;;;3.95;1.50;;;27.90;85.70;;;;;;5017114;28;20088;-74
2023/09/19 09:06:35;;;;;;;5.57;1.35;;;28.20;84.00;;;;;;5020986;28;20026;-72
2023/09/19 09:09:03;;;;;;;4.47;1.50;;;27.80;89.10;;;;;;5018590;28;20036;-73
2023/09/19 09:11:32;;;;;;;3.17;1.20;;;26.40;87.30;;;;;;5020905;28;20090;-71
2023/09/19 09:13:58;;;;;;;4.32;1.30;;;25.40;90.90;;;;;;5015279;28;20128;-73
2023/09/19 09:16:25;;;;;;;6.60;1.13;;;24.50;91.40;;;;;;5018075;28;20118;-72
2023/09/19 09:18:54;;;;;;;3.67;1.50;;;25.20;90.50;;;;;;5017818;28;20603;-71
2023/09/19 09:21:21;;;;;;;2.25;0.90;;;24.40;92.60;;;;;;5013896;28;20499;-73
2023/09/19 09:23:49;;;;;;;2.97;1.30;;;23.90;94.60;;;;;;5013811;28;20083;-75
2023/09/19 09:26:16;;;;;;;5.10;1.40;;;23.70;95.00;;;;;;5013366;28;20519;-73
2023/09/19 09:28:45;;;;;;;5.57;1.55;;;23.50;96.00;;;;;;5014735;28;20734;-72
2023/09/19 09:31:37;;;;;;;5.28;1.40;;;23.30;97.80;;;;;;5015617;28;20128;-73
2023/09/19 09:34:03;;;;;;;4.18;1.35;;;22.90;97.40;;;;;;5016065;28;20088;-70
2023/09/19 09:36:37;;;;;;;4.78;1.27;;;22.70;97.60;;;;;;5013398;28;20073;-72
2023/09/19 09:39:19;;;;;;;1.80;1.00;;;22.60;98.70;;;;;;5015993;28;20030;-71
2023/09/19 09:41:45;;;;;;;3.45;1.52;;;22.50;98.80;;;;;;5012124;28;20366;-75
2023/09/19 09:44:19;;;;;;;3.08;1.42;;;22.40;98.50;;;;;;5015056;28;20030;-74
2023/09/19 09:49:34;;;;;;;4.43;1.50;;;22.40;98.30;;;;;;5017048;28;20031;-76
2023/09/19 09:52:05;;;;;;;11.32;1.95;;;23.00;96.00;;;;;;5030222;28;20061;-75
2023/09/19 09:54:38;;;;;;;4.53;1.50;;;23.20;98.00;;;;;;5012859;28;20030;-72
2023/09/19 09:57:16;;;;;;;7.88;1.38;;;23.10;97.10;;;;;;5017906;28;20371;-76
2023/09/19 09:59:58;;;;;;;3.72;1.50;;;23.10;95.60;;;;;;5010941;28;20134;-76
2023/09/19 10:02:40;;;;;;;4.55;1.50;;;23.10;94.70;;;;;;5015746;28;20037;-74
2023/09/19 10:07:50;;;;;;;3.95;1.33;;;23.10;95.20;;;;;;5012915;28;20167;-73
2023/09/19 10:11:14;;;;;;;4.95;2.40;;;23.30;93.80;;;;;;5018838;28;20034;-74
2023/09/19 10:13:23;;;;;;;2.20;1.55;;;23.20;91.50;;;;;;5009236;28;20045;-75
2023/09/19 10:15:51;;;;;;;4.63;1.63;;;23.50;91.80;;;;;;5016051;28;20041;-72
2023/09/19 10:18:38;;;;;;;4.70;1.65;;;23.20;90.20;;;;;;5012956;28;20668;-74
2023/09/19 10:21:06;;;;;;;5.47;1.45;;;23.30;90.10;;;;;;5015916;28;20041;-74
2023/09/19 10:23:34;;;;;;;4.57;1.45;;;23.40;92.00;;;;;;5015949;28;20107;-73
2023/09/19 10:26:01;;;;;;;11.10;2.63;;;23.10;89.20;;;;;;5015393;28;20401;-73
2023/09/19 10:28:30;;;;;;;4.85;2.40;;;22.20;93.90;;;;;;5013146;28;20040;-75
2023/09/19 10:30:57;;;;;;;5.72;2.08;;;22.30;93.50;;;;;;5019505;28;20646;-71
2023/09/19 10:33:29;;;;;;;10.10;2.17;;;22.90;93.70;;;;;;5020062;28;20050;-73
2023/09/19 10:35:59;;;;;;;4.05;1.63;;;23.10;92.80;;;;;;5014323;28;20048;-72
2023/09/19 10:38:28;;;;;;;8.30;2.60;;;22.90;93.10;;;;;;5015030;28;20449;-75
2023/09/19 10:40:56;;;;;;;7.30;2.35;;;22.80;93.80;;;;;;5015158;28;20025;-74
2023/09/19 10:43:30;;;;;;;6.93;1.80;;;22.60;96.50;;;;;;5014131;28;20536;-71
2023/09/19 10:46:00;;;;;;;3.45;1.45;;;22.70;93.80;;;;;;5015178;28;20047;-72
2023/09/19 10:48:28;;;;;;;7.10;1.83;;;22.90;92.10;;;;;;5012831;28;20044;-70
2023/09/19 10:51:14;;;;;;;11.40;2.75;;;22.80;92.90;;;;;;5012314;28;20105;-73
2023/09/19 10:53:54;;;;;;;5.53;1.60;;;22.60;92.20;;;;;;5011946;28;20042;-75
2023/09/19 10:56:27;;;;;;;2.70;1.50;;;22.60;91.40;;;;;;5015531;28;20052;-73
2023/09/19 10:59:10;;;;;;;3.53;1.60;;;22.60;93.50;;;;;;5020839;28;20141;-70
2023/09/19 11:01:58;;;;;;;3.67;1.40;;;22.20;90.60;;;;;;5014533;28;20104;-78
2023/09/19 11:04:31;;;;;;;3.45;1.67;;;22.20;93.90;;;;;;5020811;28;20034;-75
2023/09/19 11:07:11;;;;;;;5.00;1.45;;;22.30;93.50;;;;;;5014782;28;20061;-74
2023/09/19 11:09:57;;;;;;;4.30;1.30;;;22.30;93.00;;;;;;5021698;28;20473;-76
2023/09/19 11:12:35;;;;;;;3.75;1.48;;;22.30;94.00;;;;;;5017248;28;20138;-78
2023/09/19 11:15:07;;;;;;;5.43;1.92;;;22.30;93.50;;;;;;5019366;28;20080;-71
2023/09/19 11:17:40;;;;;;;6.03;1.65;;;22.20;94.50;;;;;;5023250;28;20037;-73
2023/09/19 11:20:15;;;;;;;4.13;1.55;;;22.20;94.40;;;;;;5022651;28;20493;-75
2023/09/19 11:22:48;;;;;;;4.22;1.30;;;22.40;94.70;;;;;;5023276;28;20056;-75
2023/09/19 11:25:34;;;;;;;4.07;1.50;;;22.60;93.40;;;;;;5023851;28;20026;-73
2023/09/19 11:28:08;;;;;;;3.33;1.33;;;22.70;93.70;;;;;;5021997;28;20056;-75
2023/09/19 11:30:36;;;;;;;1.83;1.38;;;22.90;91.90;;;;;;5021112;28;20056;-76
2023/09/19 11:33:23;;;;;;;3.15;1.25;;;22.80;91.90;;;;;;5019427;28;20042;-73
2023/09/19 11:36:07;;;;;;;3.78;1.33;;;22.90;92.90;;;;;;5018065;28;20132;-76
2023/09/19 11:38:45;;;;;;;3.78;1.02;;;23.00;90.20;;;;;;5015014;28;20464;-75
2023/09/19 11:41:26;;;;;;;3.05;1.30;;;23.20;90.50;;;;;;5017557;28;20496;-78
2023/09/19 11:44:16;;;;;;;2.80;1.40;;;23.40;91.10;;;;;;5019336;28;20401;-76
2023/09/19 11:46:52;;;;;;;1.42;1.15;;;23.50;90.80;;;;;;5015878;28;20037;-72
2023/09/19 11:49:23;;;;;;;3.83;1.65;;;23.50;89.80;;;;;;5022750;28;20033;-76
2023/09/19 11:51:52;;;;;;;5.45;1.30;;;23.50;90.20;;;;;;5019070;28;20116;-77
2023/09/19 11:54:19;;;;;;;2.45;1.20;;;23.60;90.10;;;;;;5023785;28;20048;-75
2023/09/19 11:56:45;;;;;;;;;;;23.80;85.90;;;;;;5017950;28;20440;-73
2023/09/19 11:59:11;;;;;;;4.47;1.60;;;23.80;86.70;;;;;;5020522;28;20442;-76
2023/09/19 12:01:40;;;;;;;;;;;23.90;88.20;;;;;;5019731;28;20512;-74
2023/09/19 12:04:10;;;;;;;1.95;1.30;;;23.80;87.60;;;;;;5020444;28;20269;-79
2023/09/19 12:06:38;;;;;;;5.97;1.30;;;23.90;88.20;;;;;;5019009;28;20057;-75
2023/09/19 12:09:10;;;;;;;4.78;1.65;;;24.00;90.10;;;;;;5020915;28;20788;-76
2023/09/19 12:11:43;;;;;;;5.20;1.30;;;23.80;87.70;;;;;;5021255;28;20528;-76
2023/09/19 12:14:09;;;;;;;4.30;1.38;;;23.40;88.60;;;;;;5019216;28;20045;-78
2023/09/19 12:16:36;;;;;;;4.68;1.75;;;23.30;89.10;;;;;;5016810;28;20421;-74
2023/09/19 12:19:22;;;;;;;3.35;1.30;;;23.30;87.80;;;;;;5017852;28;20510;-74
2023/09/19 12:22:05;;;;;;;5.22;1.48;;;23.30;84.60;;;;;;5018483;28;20405;-73
2023/09/19 12:24:34;;;;;;;4.43;1.58;;;23.30;87.00;;;;;;5018056;28;21353;-72
2023/09/19 12:27:05;;;;;;;2.90;1.20;;;23.70;88.00;;;;;;5016966;28;20041;-71
2023/09/19 12:29:41;;;;;;;1.58;1.00;;;23.90;87.70;;;;;;5022942;28;20025;-72
2023/09/19 12:32:07;;;;;;;5.03;1.40;;;23.80;84.90;;;;;;5015035;28;20073;-75
2023/09/19 12:34:42;;;;;;;4.30;2.05;;;23.90;86.70;;;;;;5018128;28;20038;-74
2023/09/19 12:37:11;;;;;;;2.85;1.25;;;24.10;86.60;;;;;;5016403;28;20346;-71
2023/09/19 12:39:48;;;;;;;5.15;1.25;;;24.00;85.80;;;;;;5016966;28;20030;-73
2023/09/19 12:42:15;;;;;;;;;;;24.20;86.20;;;;;;5021336;28;20053;-74
2023/09/19 12:44:43;;;;;;;4.43;1.70;;;24.10;86.90;;;;;;5016257;28;20695;-74
2023/09/19 12:47:13;;;;;;;3.65;1.23;;;23.80;86.40;;;;;;5018489;28;20038;-69
2023/09/19 12:50:13;;;;;;;4.07;1.30;;;23.80;85.90;;;;;;5013936;28;20421;-71
2023/09/19 12:52:45;;;;;;;7.82;2.20;;;23.80;86.80;;;;;;5015368;28;20048;-72
2023/09/19 12:55:42;;;;;;;26.30;5.78;;;23.80;87.40;;;;;;5022625;28;20506;-70
2023/09/19 12:58:15;;;;;;;15.63;3.97;;;23.80;86.30;;;;;;5009394;28;20834;-71
2023/09/19 13:00:45;;;;;;;9.00;2.70;;;23.70;82.60;;;;;;5018401;28;20263;-71
2023/09/19 13:03:21;;;;;;;13.07;2.88;;;23.70;83.20;;;;;;5014624;28;20383;-70
2023/09/19 13:05:54;;;;;;;8.95;2.15;;;23.80;87.80;;;;;;5021059;28;20160;-71